sensor_id;sensor_type;location;lat;lon;timestamp;P1;durP1;ratioP1;P2;durP2;ratioP2
64826;SDS011;51265;53.972;12.286;2023-02-02T00:01:56;23.92;;;2.97;;
64826;SDS011;51265;53.972;12.286;2023-02-02T00:04:28;15.82;;;2.97;;
64826;SDS011;51265;53.972;12.286;2023-02-02T00:06:56;13.63;;;1.95;;
64826;SDS011;51265;53.972;12.286;2023-02-02T00:09:24;13.23;;;2.00;;
64826;SDS011;51265;53.972;12.286;2023-02-02T00:11:54;13.95;;;2.30;;
64826;SDS011;51265;53.972;12.286;2023-02-02T00:14:20;14.82;;;2.30;;
64826;SDS011;51265;53.972;12.286;2023-02-02T00:16:48;10.55;;;1.85;;
64826;SDS011;51265;53.972;12.286;2023-02-02T00:21:46;17.92;;;2.60;;
64826;SDS011;51265;53.972;12.286;2023-02-02T00:24:14;11.70;;;1.65;;
64826;SDS011;51265;53.972;12.286;2023-02-02T00:26:43;10.43;;;1.65;;
64826;SDS011;51265;53.972;12.286;2023-02-02T00:29:13;11.45;;;2.28;;
64826;SDS011;51265;53.972;12.286;2023-02-02T00:31:41;14.05;;;2.08;;
64826;SDS011;51265;53.972;12.286;2023-02-02T00:34:11;8.75;;;1.92;;
64826;SDS011;51265;53.972;12.286;2023-02-02T00:36:39;13.55;;;2.67;;
64826;SDS011;51265;53.972;12.286;2023-02-02T00:39:06;12.38;;;2.83;;
64826;SDS011;51265;53.972;12.286;2023-02-02T00:41:33;13.50;;;2.20;;
64826;SDS011;51265;53.972;12.286;2023-02-02T00:43:59;6.78;;;1.50;;
64826;SDS011;51265;53.972;12.286;2023-02-02T00:46:44;10.73;;;1.95;;
64826;SDS011;51265;53.972;12.286;2023-02-02T00:49:10;13.25;;;2.20;;
64826;SDS011;51265;53.972;12.286;2023-02-02T00:51:36;13.65;;;1.85;;
64826;SDS011;51265;53.972;12.286;2023-02-02T00:54:03;14.23;;;2.00;;
64826;SDS011;51265;53.972;12.286;2023-02-02T00:56:29;7.60;;;1.45;;
64826;SDS011;51265;53.972;12.286;2023-02-02T00:58:55;5.35;;;1.30;;
64826;SDS011;51265;53.972;12.286;2023-02-02T01:01:23;10.90;;;2.50;;
64826;SDS011;51265;53.972;12.286;2023-02-02T01:03:49;12.13;;;2.13;;
64826;SDS011;51265;53.972;12.286;2023-02-02T01:06:16;9.68;;;1.63;;
64826;SDS011;51265;53.972;12.286;2023-02-02T01:08:43;6.07;;;1.45;;
64826;SDS011;51265;53.972;12.286;2023-02-02T01:11:09;11.18;;;1.67;;
64826;SDS011;51265;53.972;12.286;2023-02-02T01:13:40;7.78;;;1.52;;
64826;SDS011;51265;53.972;12.286;2023-02-02T01:16:07;9.38;;;1.52;;
64826;SDS011;51265;53.972;12.286;2023-02-02T01:18:34;11.57;;;1.40;;
64826;SDS011;51265;53.972;12.286;2023-02-02T01:21:05;13.80;;;1.67;;
64826;SDS011;51265;53.972;12.286;2023-02-02T01:23:33;11.65;;;1.52;;
64826;SDS011;51265;53.972;12.286;2023-02-02T01:26:01;7.15;;;1.85;;
64826;SDS011;51265;53.972;12.286;2023-02-02T01:28:31;11.32;;;2.33;;
64826;SDS011;51265;53.972;12.286;2023-02-02T01:30:58;14.52;;;1.85;;
64826;SDS011;51265;53.972;12.286;2023-02-02T01:33:24;17.40;;;1.90;;
64826;SDS011;51265;53.972;12.286;2023-02-02T01:35:51;13.15;;;2.42;;
64826;SDS011;51265;53.972;12.286;2023-02-02T01:38:19;10.82;;;1.65;;
64826;SDS011;51265;53.972;12.286;2023-02-02T01:40:53;9.25;;;1.60;;
64826;SDS011;51265;53.972;12.286;2023-02-02T01:45:50;6.10;;;1.35;;
64826;SDS011;51265;53.972;12.286;2023-02-02T01:48:18;9.02;;;1.70;;
64826;SDS011;51265;53.972;12.286;2023-02-02T01:50:46;9.13;;;1.80;;
64826;SDS011;51265;53.972;12.286;2023-02-02T01:53:16;8.50;;;1.73;;
64826;SDS011;51265;53.972;12.286;2023-02-02T01:55:44;8.00;;;1.63;;
64826;SDS011;51265;53.972;12.286;2023-02-02T01:58:17;10.48;;;1.73;;
64826;SDS011;51265;53.972;12.286;2023-02-02T02:00:47;6.25;;;1.88;;
64826;SDS011;51265;53.972;12.286;2023-02-02T02:03:14;11.85;;;2.03;;
64826;SDS011;51265;53.972;12.286;2023-02-02T02:05:49;10.48;;;2.55;;
64826;SDS011;51265;53.972;12.286;2023-02-02T02:08:20;9.75;;;1.40;;
64826;SDS011;51265;53.972;12.286;2023-02-02T02:10:49;7.97;;;1.35;;
64826;SDS011;51265;53.972;12.286;2023-02-02T02:13:16;6.25;;;1.20;;
64826;SDS011;51265;53.972;12.286;2023-02-02T02:15:46;8.38;;;1.40;;
64826;SDS011;51265;53.972;12.286;2023-02-02T02:18:47;6.05;;;1.48;;
64826;SDS011;51265;53.972;12.286;2023-02-02T02:24:27;5.70;;;1.27;;
64826;SDS011;51265;53.972;12.286;2023-02-02T02:27:43;11.00;;;1.23;;
64826;SDS011;51265;53.972;12.286;2023-02-02T02:36:49;9.38;;;1.38;;
64826;SDS011;51265;53.972;12.286;2023-02-02T02:42:01;23.27;;;3.13;;
64826;SDS011;51265;53.972;12.286;2023-02-02T02:44:33;11.95;;;1.65;;
64826;SDS011;51265;53.972;12.286;2023-02-02T02:47:01;6.45;;;1.45;;
64826;SDS011;51265;53.972;12.286;2023-02-02T02:49:28;7.28;;;1.30;;
64826;SDS011;51265;53.972;12.286;2023-02-02T02:51:55;8.27;;;1.20;;
64826;SDS011;51265;53.972;12.286;2023-02-02T02:54:30;9.77;;;1.45;;
64826;SDS011;51265;53.972;12.286;2023-02-02T02:59:56;15.48;;;1.58;;
64826;SDS011;51265;53.972;12.286;2023-02-02T03:05:07;10.55;;;1.88;;
64826;SDS011;51265;53.972;12.286;2023-02-02T03:10:16;8.27;;;2.15;;
64826;SDS011;51265;53.972;12.286;2023-02-02T03:12:47;10.68;;;1.55;;
64826;SDS011;51265;53.972;12.286;2023-02-02T03:15:15;10.30;;;1.35;;
64826;SDS011;51265;53.972;12.286;2023-02-02T03:17:42;7.47;;;1.40;;
64826;SDS011;51265;53.972;12.286;2023-02-02T03:20:11;13.10;;;2.53;;
64826;SDS011;51265;53.972;12.286;2023-02-02T03:22:47;10.23;;;1.98;;
64826;SDS011;51265;53.972;12.286;2023-02-02T03:25:13;8.45;;;1.30;;
64826;SDS011;51265;53.972;12.286;2023-02-02T03:28:01;8.57;;;1.75;;
64826;SDS011;51265;53.972;12.286;2023-02-02T03:30:27;13.07;;;1.85;;
64826;SDS011;51265;53.972;12.286;2023-02-02T03:32:53;10.05;;;2.20;;
64826;SDS011;51265;53.972;12.286;2023-02-02T03:35:19;10.60;;;2.10;;
64826;SDS011;51265;53.972;12.286;2023-02-02T03:37:46;9.43;;;1.70;;
64826;SDS011;51265;53.972;12.286;2023-02-02T03:40:13;11.60;;;1.92;;
64826;SDS011;51265;53.972;12.286;2023-02-02T03:42:39;12.48;;;1.60;;
64826;SDS011;51265;53.972;12.286;2023-02-02T03:45:06;7.38;;;1.13;;
64826;SDS011;51265;53.972;12.286;2023-02-02T03:47:33;7.88;;;1.30;;
64826;SDS011;51265;53.972;12.286;2023-02-02T03:49:59;11.27;;;1.60;;
64826;SDS011;51265;53.972;12.286;2023-02-02T03:52:25;9.13;;;1.45;;
64826;SDS011;51265;53.972;12.286;2023-02-02T03:54:51;15.30;;;1.95;;
64826;SDS011;51265;53.972;12.286;2023-02-02T03:57:18;13.07;;;1.65;;
64826;SDS011;51265;53.972;12.286;2023-02-02T03:59:54;13.82;;;2.10;;
64826;SDS011;51265;53.972;12.286;2023-02-02T04:02:20;9.38;;;1.42;;
64826;SDS011;51265;53.972;12.286;2023-02-02T04:04:46;14.85;;;1.58;;
64826;SDS011;51265;53.972;12.286;2023-02-02T04:07:12;12.48;;;1.65;;
64826;SDS011;51265;53.972;12.286;2023-02-02T04:09:38;9.70;;;1.13;;
64826;SDS011;51265;53.972;12.286;2023-02-02T04:12:05;6.43;;;1.80;;
64826;SDS011;51265;53.972;12.286;2023-02-02T04:14:31;9.35;;;1.55;;
64826;SDS011;51265;53.972;12.286;2023-02-02T04:16:57;9.15;;;1.48;;
64826;SDS011;51265;53.972;12.286;2023-02-02T04:19:23;12.77;;;1.70;;
64826;SDS011;51265;53.972;12.286;2023-02-02T04:21:49;7.22;;;1.50;;
64826;SDS011;51265;53.972;12.286;2023-02-02T04:24:15;14.30;;;2.00;;
64826;SDS011;51265;53.972;12.286;2023-02-02T04:26:42;7.35;;;1.70;;
64826;SDS011;51265;53.972;12.286;2023-02-02T04:29:08;13.57;;;3.15;;
64826;SDS011;51265;53.972;12.286;2023-02-02T04:31:34;10.70;;;1.75;;
64826;SDS011;51265;53.972;12.286;2023-02-02T04:34:00;18.67;;;2.33;;
64826;SDS011;51265;53.972;12.286;2023-02-02T04:36:26;13.10;;;1.95;;
64826;SDS011;51265;53.972;12.286;2023-02-02T04:38:53;14.85;;;2.05;;
64826;SDS011;51265;53.972;12.286;2023-02-02T04:41:20;18.95;;;1.80;;
64826;SDS011;51265;53.972;12.286;2023-02-02T04:43:47;12.98;;;2.50;;
64826;SDS011;51265;53.972;12.286;2023-02-02T04:46:14;9.70;;;1.98;;
64826;SDS011;51265;53.972;12.286;2023-02-02T04:48:40;15.88;;;1.90;;
64826;SDS011;51265;53.972;12.286;2023-02-02T04:51:14;16.60;;;2.03;;
64826;SDS011;51265;53.972;12.286;2023-02-02T04:53:40;14.95;;;1.98;;
64826;SDS011;51265;53.972;12.286;2023-02-02T04:56:14;13.50;;;2.13;;
64826;SDS011;51265;53.972;12.286;2023-02-02T04:58:43;16.67;;;2.47;;
64826;SDS011;51265;53.972;12.286;2023-02-02T05:01:11;18.73;;;2.97;;
64826;SDS011;51265;53.972;12.286;2023-02-02T05:03:41;10.68;;;2.38;;
64826;SDS011;51265;53.972;12.286;2023-02-02T05:06:07;18.02;;;2.40;;
64826;SDS011;51265;53.972;12.286;2023-02-02T05:08:34;16.50;;;2.55;;
64826;SDS011;51265;53.972;12.286;2023-02-02T05:11:11;14.90;;;2.40;;
64826;SDS011;51265;53.972;12.286;2023-02-02T05:13:39;21.85;;;3.58;;
64826;SDS011;51265;53.972;12.286;2023-02-02T05:16:05;21.38;;;3.10;;
64826;SDS011;51265;53.972;12.286;2023-02-02T05:18:32;15.77;;;2.70;;
64826;SDS011;51265;53.972;12.286;2023-02-02T05:20:59;17.10;;;3.35;;
64826;SDS011;51265;53.972;12.286;2023-02-02T05:23:26;18.02;;;2.50;;
64826;SDS011;51265;53.972;12.286;2023-02-02T05:25:53;12.18;;;2.28;;
64826;SDS011;51265;53.972;12.286;2023-02-02T05:28:20;15.63;;;2.20;;
64826;SDS011;51265;53.972;12.286;2023-02-02T05:30:47;15.30;;;3.00;;
64826;SDS011;51265;53.972;12.286;2023-02-02T05:33:14;15.63;;;2.70;;
64826;SDS011;51265;53.972;12.286;2023-02-02T05:35:40;15.35;;;2.80;;
64826;SDS011;51265;53.972;12.286;2023-02-02T05:38:06;21.33;;;2.50;;
64826;SDS011;51265;53.972;12.286;2023-02-02T05:40:33;20.42;;;2.22;;
64826;SDS011;51265;53.972;12.286;2023-02-02T05:42:59;15.18;;;2.17;;
64826;SDS011;51265;53.972;12.286;2023-02-02T05:45:25;20.45;;;3.08;;
64826;SDS011;51265;53.972;12.286;2023-02-02T05:47:54;16.80;;;3.22;;
64826;SDS011;51265;53.972;12.286;2023-02-02T05:50:21;16.77;;;2.90;;
64826;SDS011;51265;53.972;12.286;2023-02-02T05:52:59;15.23;;;2.33;;
64826;SDS011;51265;53.972;12.286;2023-02-02T05:55:26;15.18;;;2.30;;
64826;SDS011;51265;53.972;12.286;2023-02-02T05:57:52;22.92;;;3.08;;
64826;SDS011;51265;53.972;12.286;2023-02-02T06:00:18;24.13;;;3.10;;
64826;SDS011;51265;53.972;12.286;2023-02-02T06:02:44;17.50;;;2.33;;
64826;SDS011;51265;53.972;12.286;2023-02-02T06:05:11;17.95;;;2.63;;
64826;SDS011;51265;53.972;12.286;2023-02-02T06:07:37;21.90;;;2.97;;
64826;SDS011;51265;53.972;12.286;2023-02-02T06:10:03;20.58;;;2.65;;
64826;SDS011;51265;53.972;12.286;2023-02-02T06:12:30;18.92;;;3.05;;
64826;SDS011;51265;53.972;12.286;2023-02-02T06:14:56;18.05;;;2.78;;
64826;SDS011;51265;53.972;12.286;2023-02-02T06:17:22;24.85;;;2.55;;
64826;SDS011;51265;53.972;12.286;2023-02-02T06:19:48;24.77;;;2.67;;
64826;SDS011;51265;53.972;12.286;2023-02-02T06:22:15;24.17;;;2.72;;
64826;SDS011;51265;53.972;12.286;2023-02-02T06:24:41;21.92;;;2.75;;
64826;SDS011;51265;53.972;12.286;2023-02-02T06:27:27;20.20;;;2.42;;
64826;SDS011;51265;53.972;12.286;2023-02-02T06:29:53;20.70;;;2.97;;
64826;SDS011;51265;53.972;12.286;2023-02-02T06:32:19;25.83;;;2.70;;
64826;SDS011;51265;53.972;12.286;2023-02-02T06:34:46;18.27;;;3.00;;
64826;SDS011;51265;53.972;12.286;2023-02-02T06:37:12;15.45;;;2.28;;
64826;SDS011;51265;53.972;12.286;2023-02-02T06:39:38;20.30;;;2.55;;
64826;SDS011;51265;53.972;12.286;2023-02-02T06:42:04;17.60;;;2.33;;
64826;SDS011;51265;53.972;12.286;2023-02-02T06:44:30;17.02;;;2.47;;
64826;SDS011;51265;53.972;12.286;2023-02-02T06:46:56;15.43;;;2.08;;
64826;SDS011;51265;53.972;12.286;2023-02-02T06:49:23;13.85;;;1.80;;
64826;SDS011;51265;53.972;12.286;2023-02-02T06:51:49;15.38;;;2.38;;
64826;SDS011;51265;53.972;12.286;2023-02-02T06:54:15;14.38;;;2.50;;
64826;SDS011;51265;53.972;12.286;2023-02-02T06:56:41;18.08;;;2.20;;
64826;SDS011;51265;53.972;12.286;2023-02-02T06:59:07;12.10;;;2.25;;
64826;SDS011;51265;53.972;12.286;2023-02-02T07:01:33;18.80;;;2.53;;
64826;SDS011;51265;53.972;12.286;2023-02-02T07:03:59;16.20;;;2.00;;
64826;SDS011;51265;53.972;12.286;2023-02-02T07:06:26;18.75;;;2.97;;
64826;SDS011;51265;53.972;12.286;2023-02-02T07:08:53;16.70;;;2.22;;
64826;SDS011;51265;53.972;12.286;2023-02-02T07:11:21;20.38;;;2.67;;
64826;SDS011;51265;53.972;12.286;2023-02-02T07:13:48;14.75;;;2.33;;
64826;SDS011;51265;53.972;12.286;2023-02-02T07:16:15;15.52;;;3.10;;
64826;SDS011;51265;53.972;12.286;2023-02-02T07:18:42;21.83;;;2.42;;
64826;SDS011;51265;53.972;12.286;2023-02-02T07:21:14;19.70;;;3.33;;
64826;SDS011;51265;53.972;12.286;2023-02-02T07:23:45;18.95;;;2.55;;
64826;SDS011;51265;53.972;12.286;2023-02-02T07:26:12;19.23;;;2.08;;
64826;SDS011;51265;53.972;12.286;2023-02-02T07:28:39;29.95;;;2.75;;
64826;SDS011;51265;53.972;12.286;2023-02-02T07:31:13;23.17;;;2.53;;
64826;SDS011;51265;53.972;12.286;2023-02-02T07:33:44;21.02;;;2.42;;
64826;SDS011;51265;53.972;12.286;2023-02-02T07:36:12;16.52;;;2.15;;
64826;SDS011;51265;53.972;12.286;2023-02-02T07:38:41;29.77;;;2.72;;
64826;SDS011;51265;53.972;12.286;2023-02-02T07:41:08;19.50;;;2.53;;
64826;SDS011;51265;53.972;12.286;2023-02-02T07:43:34;18.10;;;2.13;;
64826;SDS011;51265;53.972;12.286;2023-02-02T07:46:00;17.92;;;3.63;;
64826;SDS011;51265;53.972;12.286;2023-02-02T07:48:31;20.85;;;2.60;;
64826;SDS011;51265;53.972;12.286;2023-02-02T07:51:00;23.70;;;2.33;;
64826;SDS011;51265;53.972;12.286;2023-02-02T07:53:28;21.33;;;2.70;;
64826;SDS011;51265;53.972;12.286;2023-02-02T07:58:53;15.25;;;2.20;;
64826;SDS011;51265;53.972;12.286;2023-02-02T08:01:21;24.02;;;2.85;;
64826;SDS011;51265;53.972;12.286;2023-02-02T08:03:48;22.15;;;2.90;;
64826;SDS011;51265;53.972;12.286;2023-02-02T08:06:19;13.95;;;1.92;;
64826;SDS011;51265;53.972;12.286;2023-02-02T08:08:47;14.95;;;2.35;;
64826;SDS011;51265;53.972;12.286;2023-02-02T08:11:15;15.15;;;1.92;;
64826;SDS011;51265;53.972;12.286;2023-02-02T08:13:43;17.02;;;3.10;;
64826;SDS011;51265;53.972;12.286;2023-02-02T08:16:10;11.05;;;1.90;;
64826;SDS011;51265;53.972;12.286;2023-02-02T08:18:37;16.05;;;2.20;;
64826;SDS011;51265;53.972;12.286;2023-02-02T08:21:04;18.90;;;2.38;;
64826;SDS011;51265;53.972;12.286;2023-02-02T08:23:36;21.52;;;2.28;;
64826;SDS011;51265;53.972;12.286;2023-02-02T08:26:07;18.13;;;2.50;;
64826;SDS011;51265;53.972;12.286;2023-02-02T08:28:36;14.03;;;1.57;;
64826;SDS011;51265;53.972;12.286;2023-02-02T08:31:07;14.70;;;2.08;;
64826;SDS011;51265;53.972;12.286;2023-02-02T08:33:44;7.25;;;1.65;;
64826;SDS011;51265;53.972;12.286;2023-02-02T08:36:14;12.00;;;2.00;;
64826;SDS011;51265;53.972;12.286;2023-02-02T08:38:45;8.07;;;1.20;;
64826;SDS011;51265;53.972;12.286;2023-02-02T08:41:13;4.97;;;1.52;;
64826;SDS011;51265;53.972;12.286;2023-02-02T08:43:41;7.55;;;1.58;;
64826;SDS011;51265;53.972;12.286;2023-02-02T08:46:09;9.63;;;1.55;;
64826;SDS011;51265;53.972;12.286;2023-02-02T08:48:37;10.70;;;1.10;;
64826;SDS011;51265;53.972;12.286;2023-02-02T08:51:22;8.32;;;1.38;;
64826;SDS011;51265;53.972;12.286;2023-02-02T08:53:48;9.65;;;1.40;;
64826;SDS011;51265;53.972;12.286;2023-02-02T08:56:16;5.32;;;1.25;;
64826;SDS011;51265;53.972;12.286;2023-02-02T08:58:44;4.93;;;1.23;;
64826;SDS011;51265;53.972;12.286;2023-02-02T09:01:17;4.40;;;1.08;;
64826;SDS011;51265;53.972;12.286;2023-02-02T09:03:45;7.13;;;1.05;;
64826;SDS011;51265;53.972;12.286;2023-02-02T09:06:15;7.80;;;1.52;;
64826;SDS011;51265;53.972;12.286;2023-02-02T09:08:43;5.25;;;1.27;;
64826;SDS011;51265;53.972;12.286;2023-02-02T09:11:16;7.15;;;1.17;;
64826;SDS011;51265;53.972;12.286;2023-02-02T09:13:44;8.55;;;1.48;;
64826;SDS011;51265;53.972;12.286;2023-02-02T09:16:12;5.18;;;1.38;;
64826;SDS011;51265;53.972;12.286;2023-02-02T09:18:40;9.48;;;1.80;;
64826;SDS011;51265;53.972;12.286;2023-02-02T09:21:08;8.38;;;1.33;;
64826;SDS011;51265;53.972;12.286;2023-02-02T09:23:37;8.32;;;1.30;;
64826;SDS011;51265;53.972;12.286;2023-02-02T09:26:12;8.38;;;1.63;;
64826;SDS011;51265;53.972;12.286;2023-02-02T09:28:44;7.15;;;1.80;;
64826;SDS011;51265;53.972;12.286;2023-02-02T09:31:12;9.43;;;1.70;;
64826;SDS011;51265;53.972;12.286;2023-02-02T09:33:39;7.85;;;1.48;;
64826;SDS011;51265;53.972;12.286;2023-02-02T09:36:09;8.73;;;1.50;;
64826;SDS011;51265;53.972;12.286;2023-02-02T09:38:39;7.22;;;2.00;;
64826;SDS011;51265;53.972;12.286;2023-02-02T09:46:47;6.43;;;1.50;;
64826;SDS011;51265;53.972;12.286;2023-02-02T09:49:21;6.97;;;1.83;;
64826;SDS011;51265;53.972;12.286;2023-02-02T09:51:58;6.32;;;1.20;;
64826;SDS011;51265;53.972;12.286;2023-02-02T09:54:40;8.48;;;1.20;;
64826;SDS011;51265;53.972;12.286;2023-02-02T09:57:12;11.13;;;1.50;;
64826;SDS011;51265;53.972;12.286;2023-02-02T09:59:44;9.95;;;1.20;;
64826;SDS011;51265;53.972;12.286;2023-02-02T10:02:21;8.02;;;1.45;;
64826;SDS011;51265;53.972;12.286;2023-02-02T10:04:53;8.75;;;1.30;;
64826;SDS011;51265;53.972;12.286;2023-02-02T10:07:26;4.43;;;1.52;;
64826;SDS011;51265;53.972;12.286;2023-02-02T10:09:59;7.55;;;1.55;;
64826;SDS011;51265;53.972;12.286;2023-02-02T10:12:40;4.57;;;0.90;;
64826;SDS011;51265;53.972;12.286;2023-02-02T10:25:56;4.45;;;0.77;;
64826;SDS011;51265;53.972;12.286;2023-02-02T10:31:22;4.63;;;0.70;;
64826;SDS011;51265;53.972;12.286;2023-02-02T10:39:51;11.75;;;2.08;;
64826;SDS011;51265;53.972;12.286;2023-02-02T10:42:48;3.17;;;0.80;;
64826;SDS011;51265;53.972;12.286;2023-02-02T10:45:54;7.43;;;1.75;;
64826;SDS011;51265;53.972;12.286;2023-02-02T10:48:22;4.90;;;0.75;;
64826;SDS011;51265;53.972;12.286;2023-02-02T10:51:01;6.85;;;0.82;;
64826;SDS011;51265;53.972;12.286;2023-02-02T10:53:36;3.17;;;0.85;;
64826;SDS011;51265;53.972;12.286;2023-02-02T10:56:07;3.55;;;1.63;;
64826;SDS011;51265;53.972;12.286;2023-02-02T10:58:45;5.85;;;0.65;;
64826;SDS011;51265;53.972;12.286;2023-02-02T11:01:19;4.18;;;0.60;;
64826;SDS011;51265;53.972;12.286;2023-02-02T11:03:47;3.30;;;0.80;;
64826;SDS011;51265;53.972;12.286;2023-02-02T11:06:34;4.40;;;0.88;;
64826;SDS011;51265;53.972;12.286;2023-02-02T11:09:18;7.80;;;0.90;;
64826;SDS011;51265;53.972;12.286;2023-02-02T11:11:48;4.28;;;0.65;;
64826;SDS011;51265;53.972;12.286;2023-02-02T11:14:20;5.20;;;0.85;;
64826;SDS011;51265;53.972;12.286;2023-02-02T11:17:17;3.08;;;0.80;;
64826;SDS011;51265;53.972;12.286;2023-02-02T11:19:45;7.13;;;1.75;;
64826;SDS011;51265;53.972;12.286;2023-02-02T11:24:53;6.50;;;1.02;;
64826;SDS011;51265;53.972;12.286;2023-02-02T11:29:53;4.05;;;0.68;;
64826;SDS011;51265;53.972;12.286;2023-02-02T11:37:30;4.05;;;1.27;;
64826;SDS011;51265;53.972;12.286;2023-02-02T11:42:56;2.75;;;0.82;;
64826;SDS011;51265;53.972;12.286;2023-02-02T11:45:37;5.90;;;1.00;;
64826;SDS011;51265;53.972;12.286;2023-02-02T11:50:51;2.40;;;0.65;;
64826;SDS011;51265;53.972;12.286;2023-02-02T11:56:00;6.28;;;0.80;;
64826;SDS011;51265;53.972;12.286;2023-02-02T11:58:41;4.70;;;0.85;;
64826;SDS011;51265;53.972;12.286;2023-02-02T12:01:15;5.97;;;0.60;;
64826;SDS011;51265;53.972;12.286;2023-02-02T12:03:48;2.60;;;0.65;;
64826;SDS011;51265;53.972;12.286;2023-02-02T12:06:22;6.03;;;0.63;;
64826;SDS011;51265;53.972;12.286;2023-02-02T12:08:58;2.65;;;0.77;;
64826;SDS011;51265;53.972;12.286;2023-02-02T12:11:31;4.68;;;0.85;;
64826;SDS011;51265;53.972;12.286;2023-02-02T12:19:26;6.85;;;1.17;;
64826;SDS011;51265;53.972;12.286;2023-02-02T12:24:50;2.13;;;0.60;;
64826;SDS011;51265;53.972;12.286;2023-02-02T12:30:36;1.90;;;0.55;;
64826;SDS011;51265;53.972;12.286;2023-02-02T12:33:38;4.85;;;0.60;;
64826;SDS011;51265;53.972;12.286;2023-02-02T12:46:56;6.60;;;0.70;;
64826;SDS011;51265;53.972;12.286;2023-02-02T12:52:23;7.03;;;0.70;;
64826;SDS011;51265;53.972;12.286;2023-02-02T12:55:06;3.70;;;0.55;;
64826;SDS011;51265;53.972;12.286;2023-02-02T12:57:45;7.75;;;0.80;;
64826;SDS011;51265;53.972;12.286;2023-02-02T13:09:12;4.40;;;1.00;;
64826;SDS011;51265;53.972;12.286;2023-02-02T13:17:14;4.03;;;1.27;;
64826;SDS011;51265;53.972;12.286;2023-02-02T13:19:50;3.67;;;0.80;;
64826;SDS011;51265;53.972;12.286;2023-02-02T13:22:26;4.97;;;0.80;;
64826;SDS011;51265;53.972;12.286;2023-02-02T13:24:58;3.10;;;1.00;;
64826;SDS011;51265;53.972;12.286;2023-02-02T13:27:27;5.25;;;0.90;;
64826;SDS011;51265;53.972;12.286;2023-02-02T13:32:29;7.10;;;0.90;;
64826;SDS011;51265;53.972;12.286;2023-02-02T13:35:01;5.68;;;0.73;;
64826;SDS011;51265;53.972;12.286;2023-02-02T13:37:46;4.68;;;0.82;;
64826;SDS011;51265;53.972;12.286;2023-02-02T13:40:24;5.35;;;0.73;;
64826;SDS011;51265;53.972;12.286;2023-02-02T13:42:56;4.60;;;0.90;;
64826;SDS011;51265;53.972;12.286;2023-02-02T13:45:40;11.38;;;0.60;;
64826;SDS011;51265;53.972;12.286;2023-02-02T13:54:03;5.63;;;1.00;;
64826;SDS011;51265;53.972;12.286;2023-02-02T13:57:04;7.18;;;0.70;;
64826;SDS011;51265;53.972;12.286;2023-02-02T14:00:02;5.28;;;0.90;;
64826;SDS011;51265;53.972;12.286;2023-02-02T14:02:46;5.82;;;0.70;;
64826;SDS011;51265;53.972;12.286;2023-02-02T14:07:53;1.60;;;0.90;;
64826;SDS011;51265;53.972;12.286;2023-02-02T14:10:26;6.15;;;1.35;;
64826;SDS011;51265;53.972;12.286;2023-02-02T14:13:03;6.70;;;1.33;;
64826;SDS011;51265;53.972;12.286;2023-02-02T14:15:36;4.20;;;0.77;;
64826;SDS011;51265;53.972;12.286;2023-02-02T14:18:04;9.00;;;0.73;;
64826;SDS011;51265;53.972;12.286;2023-02-02T14:26:12;3.78;;;0.90;;
64826;SDS011;51265;53.972;12.286;2023-02-02T14:28:49;7.35;;;1.08;;
64826;SDS011;51265;53.972;12.286;2023-02-02T14:31:25;4.25;;;0.65;;
64826;SDS011;51265;53.972;12.286;2023-02-02T14:36:40;6.40;;;0.88;;
64826;SDS011;51265;53.972;12.286;2023-02-02T14:39:20;6.38;;;0.82;;
64826;SDS011;51265;53.972;12.286;2023-02-02T14:45:02;6.43;;;0.77;;
64826;SDS011;51265;53.972;12.286;2023-02-02T14:47:50;5.70;;;0.70;;
64826;SDS011;51265;53.972;12.286;2023-02-02T14:50:21;4.07;;;0.68;;
64826;SDS011;51265;53.972;12.286;2023-02-02T14:53:35;5.38;;;1.52;;
64826;SDS011;51265;53.972;12.286;2023-02-02T14:56:05;4.18;;;1.08;;
64826;SDS011;51265;53.972;12.286;2023-02-02T14:58:42;3.92;;;1.15;;
64826;SDS011;51265;53.972;12.286;2023-02-02T15:01:33;9.63;;;1.35;;
64826;SDS011;51265;53.972;12.286;2023-02-02T15:06:50;5.25;;;1.23;;
64826;SDS011;51265;53.972;12.286;2023-02-02T15:17:02;8.73;;;1.77;;
64826;SDS011;51265;53.972;12.286;2023-02-02T15:25:21;7.28;;;1.30;;
64826;SDS011;51265;53.972;12.286;2023-02-02T15:33:36;5.82;;;1.17;;
64826;SDS011;51265;53.972;12.286;2023-02-02T15:36:08;9.32;;;1.40;;
64826;SDS011;51265;53.972;12.286;2023-02-02T15:38:52;8.75;;;1.05;;
64826;SDS011;51265;53.972;12.286;2023-02-02T15:41:25;3.40;;;1.25;;
64826;SDS011;51265;53.972;12.286;2023-02-02T15:43:57;8.50;;;1.20;;
64826;SDS011;51265;53.972;12.286;2023-02-02T15:46:25;5.45;;;1.10;;
64826;SDS011;51265;53.972;12.286;2023-02-02T15:51:45;9.32;;;1.45;;
64826;SDS011;51265;53.972;12.286;2023-02-02T15:54:48;4.05;;;1.23;;
64826;SDS011;51265;53.972;12.286;2023-02-02T15:57:21;5.30;;;1.50;;
64826;SDS011;51265;53.972;12.286;2023-02-02T15:59:50;5.55;;;1.30;;
64826;SDS011;51265;53.972;12.286;2023-02-02T16:02:22;2.97;;;1.35;;
64826;SDS011;51265;53.972;12.286;2023-02-02T16:04:54;15.98;;;3.50;;
64826;SDS011;51265;53.972;12.286;2023-02-02T16:07:22;10.00;;;1.15;;
64826;SDS011;51265;53.972;12.286;2023-02-02T16:09:53;4.90;;;0.85;;
64826;SDS011;51265;53.972;12.286;2023-02-02T16:12:20;5.75;;;1.38;;
64826;SDS011;51265;53.972;12.286;2023-02-02T16:14:48;5.35;;;1.45;;
64826;SDS011;51265;53.972;12.286;2023-02-02T16:17:27;8.65;;;1.42;;
64826;SDS011;51265;53.972;12.286;2023-02-02T16:19:56;4.55;;;1.58;;
64826;SDS011;51265;53.972;12.286;2023-02-02T16:22:27;3.97;;;1.02;;
64826;SDS011;51265;53.972;12.286;2023-02-02T16:24:56;6.93;;;1.40;;
64826;SDS011;51265;53.972;12.286;2023-02-02T16:27:26;10.13;;;1.35;;
64826;SDS011;51265;53.972;12.286;2023-02-02T16:29:55;9.38;;;1.73;;
64826;SDS011;51265;53.972;12.286;2023-02-02T16:32:30;6.50;;;1.33;;
64826;SDS011;51265;53.972;12.286;2023-02-02T16:34:57;6.75;;;1.55;;
64826;SDS011;51265;53.972;12.286;2023-02-02T16:37:25;8.30;;;1.73;;
64826;SDS011;51265;53.972;12.286;2023-02-02T16:39:55;11.07;;;2.25;;
64826;SDS011;51265;53.972;12.286;2023-02-02T16:42:39;9.57;;;1.40;;
64826;SDS011;51265;53.972;12.286;2023-02-02T16:45:06;14.45;;;2.10;;
64826;SDS011;51265;53.972;12.286;2023-02-02T16:47:53;14.00;;;1.38;;
64826;SDS011;51265;53.972;12.286;2023-02-02T16:50:26;7.93;;;1.83;;
64826;SDS011;51265;53.972;12.286;2023-02-02T16:52:58;6.47;;;1.35;;
64826;SDS011;51265;53.972;12.286;2023-02-02T16:55:28;7.82;;;1.58;;
64826;SDS011;51265;53.972;12.286;2023-02-02T16:57:57;15.23;;;1.70;;
64826;SDS011;51265;53.972;12.286;2023-02-02T17:00:25;7.55;;;1.90;;
64826;SDS011;51265;53.972;12.286;2023-02-02T17:02:59;4.95;;;1.60;;
64826;SDS011;51265;53.972;12.286;2023-02-02T17:05:37;8.70;;;1.80;;
64826;SDS011;51265;53.972;12.286;2023-02-02T17:08:14;5.95;;;1.63;;
64826;SDS011;51265;53.972;12.286;2023-02-02T17:13:44;6.95;;;1.60;;
64826;SDS011;51265;53.972;12.286;2023-02-02T17:16:11;8.82;;;1.70;;
64826;SDS011;51265;53.972;12.286;2023-02-02T17:18:40;8.82;;;1.60;;
64826;SDS011;51265;53.972;12.286;2023-02-02T17:21:08;8.20;;;1.50;;
64826;SDS011;51265;53.972;12.286;2023-02-02T17:23:42;8.05;;;1.40;;
64826;SDS011;51265;53.972;12.286;2023-02-02T17:26:09;2.85;;;1.17;;
64826;SDS011;51265;53.972;12.286;2023-02-02T17:28:37;3.88;;;1.10;;
64826;SDS011;51265;53.972;12.286;2023-02-02T17:31:15;10.45;;;1.40;;
64826;SDS011;51265;53.972;12.286;2023-02-02T17:33:41;10.52;;;2.67;;